sensor_id;sensor_type;location;lat;lon;timestamp;temperature;humidity
20650;DHT22;10484;48.736;9.332;2023-08-20T00:00:25;25.20;1.00
20650;DHT22;10484;48.736;9.332;2023-08-20T00:02:56;25.10;1.00
20650;DHT22;10484;48.736;9.332;2023-08-20T00:05:23;25.10;1.00
20650;DHT22;10484;48.736;9.332;2023-08-20T00:07:49;25.10;1.00
20650;DHT22;10484;48.736;9.332;2023-08-20T00:10:14;25.00;1.00
20650;DHT22;10484;48.736;9.332;2023-08-20T00:12:40;25.00;1.00
20650;DHT22;10484;48.736;9.332;2023-08-20T00:15:06;25.00;1.00
20650;DHT22;10484;48.736;9.332;2023-08-20T00:17:36;25.00;1.00
20650;DHT22;10484;48.736;9.332;2023-08-20T00:20:07;24.90;1.00
20650;DHT22;10484;48.736;9.332;2023-08-20T00:22:39;24.90;1.00
20650;DHT22;10484;48.736;9.332;2023-08-20T00:25:05;24.90;1.00
20650;DHT22;10484;48.736;9.332;2023-08-20T00:27:32;24.90;1.00
20650;DHT22;10484;48.736;9.332;2023-08-20T00:29:57;24.80;1.00
20650;DHT22;10484;48.736;9.332;2023-08-20T00:32:23;24.80;1.00
20650;DHT22;10484;48.736;9.332;2023-08-20T00:34:49;24.80;1.00
20650;DHT22;10484;48.736;9.332;2023-08-20T00:37:14;24.80;1.00
20650;DHT22;10484;48.736;9.332;2023-08-20T00:39:40;24.70;1.00
20650;DHT22;10484;48.736;9.332;2023-08-20T00:42:06;24.70;1.00
20650;DHT22;10484;48.736;9.332;2023-08-20T00:44:33;24.70;1.00
20650;DHT22;10484;48.736;9.332;2023-08-20T00:47:00;24.60;1.00
20650;DHT22;10484;48.736;9.332;2023-08-20T00:49:26;24.60;1.00
20650;DHT22;10484;48.736;9.332;2023-08-20T00:51:52;24.60;1.00
20650;DHT22;10484;48.736;9.332;2023-08-20T00:54:19;24.60;1.00
20650;DHT22;10484;48.736;9.332;2023-08-20T00:56:45;24.60;1.00
20650;DHT22;10484;48.736;9.332;2023-08-20T00:59:11;24.50;1.00
20650;DHT22;10484;48.736;9.332;2023-08-20T01:01:36;24.50;1.00
20650;DHT22;10484;48.736;9.332;2023-08-20T01:04:02;24.50;1.00
20650;DHT22;10484;48.736;9.332;2023-08-20T01:12:01;24.30;1.00
20650;DHT22;10484;48.736;9.332;2023-08-20T01:14:27;24.30;1.00
20650;DHT22;10484;48.736;9.332;2023-08-20T01:16:53;24.30;1.00
20650;DHT22;10484;48.736;9.332;2023-08-20T01:19:20;24.30;1.00
20650;DHT22;10484;48.736;9.332;2023-08-20T01:24:39;24.20;1.00
20650;DHT22;10484;48.736;9.332;2023-08-20T01:27:27;24.20;1.00
20650;DHT22;10484;48.736;9.332;2023-08-20T01:29:55;24.10;1.00
20650;DHT22;10484;48.736;9.332;2023-08-20T01:32:22;24.10;1.00
20650;DHT22;10484;48.736;9.332;2023-08-20T01:34:48;24.10;1.00
20650;DHT22;10484;48.736;9.332;2023-08-20T01:37:15;24.10;1.00
20650;DHT22;10484;48.736;9.332;2023-08-20T01:39:40;24.10;1.00
20650;DHT22;10484;48.736;9.332;2023-08-20T01:42:06;24.00;1.00
20650;DHT22;10484;48.736;9.332;2023-08-20T01:44:32;24.00;1.00
20650;DHT22;10484;48.736;9.332;2023-08-20T01:46:57;24.00;1.00
20650;DHT22;10484;48.736;9.332;2023-08-20T01:49:23;24.00;1.00
20650;DHT22;10484;48.736;9.332;2023-08-20T01:51:48;24.00;1.00
20650;DHT22;10484;48.736;9.332;2023-08-20T01:54:14;23.90;1.00
20650;DHT22;10484;48.736;9.332;2023-08-20T01:56:40;23.90;1.00
20650;DHT22;10484;48.736;9.332;2023-08-20T01:59:06;23.90;1.00
20650;DHT22;10484;48.736;9.332;2023-08-20T02:01:31;23.90;1.00
20650;DHT22;10484;48.736;9.332;2023-08-20T02:03:57;23.80;1.00
20650;DHT22;10484;48.736;9.332;2023-08-20T02:06:22;23.80;1.00
20650;DHT22;10484;48.736;9.332;2023-08-20T02:08:48;23.80;1.00
20650;DHT22;10484;48.736;9.332;2023-08-20T02:11:14;23.80;1.00
20650;DHT22;10484;48.736;9.332;2023-08-20T02:13:39;23.70;1.00
20650;DHT22;10484;48.736;9.332;2023-08-20T02:16:05;23.70;1.00
20650;DHT22;10484;48.736;9.332;2023-08-20T02:18:32;23.70;1.00
20650;DHT22;10484;48.736;9.332;2023-08-20T02:20:57;23.60;1.00
20650;DHT22;10484;48.736;9.332;2023-08-20T02:23:23;23.60;1.00
20650;DHT22;10484;48.736;9.332;2023-08-20T02:25:49;23.60;1.00
20650;DHT22;10484;48.736;9.332;2023-08-20T02:28:14;23.50;1.00
20650;DHT22;10484;48.736;9.332;2023-08-20T02:30:45;23.50;1.00
20650;DHT22;10484;48.736;9.332;2023-08-20T02:33:11;23.50;1.00
20650;DHT22;10484;48.736;9.332;2023-08-20T02:35:37;23.50;1.00
20650;DHT22;10484;48.736;9.332;2023-08-20T02:38:04;23.40;1.00
20650;DHT22;10484;48.736;9.332;2023-08-20T02:40:29;23.40;1.00
20650;DHT22;10484;48.736;9.332;2023-08-20T02:42:55;23.40;1.00
20650;DHT22;10484;48.736;9.332;2023-08-20T02:45:20;23.40;1.00
20650;DHT22;10484;48.736;9.332;2023-08-20T02:47:46;23.40;1.00
20650;DHT22;10484;48.736;9.332;2023-08-20T02:50:11;23.30;1.00
20650;DHT22;10484;48.736;9.332;2023-08-20T02:52:37;23.30;1.00
20650;DHT22;10484;48.736;9.332;2023-08-20T02:55:03;23.30;1.00
20650;DHT22;10484;48.736;9.332;2023-08-20T02:57:30;23.30;1.00
20650;DHT22;10484;48.736;9.332;2023-08-20T02:59:56;23.30;1.00
20650;DHT22;10484;48.736;9.332;2023-08-20T03:02:22;23.20;1.00
20650;DHT22;10484;48.736;9.332;2023-08-20T03:04:47;23.20;1.00
20650;DHT22;10484;48.736;9.332;2023-08-20T03:07:13;23.10;1.00
20650;DHT22;10484;48.736;9.332;2023-08-20T03:09:38;23.10;1.00
20650;DHT22;10484;48.736;9.332;2023-08-20T03:12:04;23.10;1.00
20650;DHT22;10484;48.736;9.332;2023-08-20T03:14:30;23.10;1.00
20650;DHT22;10484;48.736;9.332;2023-08-20T03:16:55;23.00;1.00
20650;DHT22;10484;48.736;9.332;2023-08-20T03:19:21;23.00;1.00
20650;DHT22;10484;48.736;9.332;2023-08-20T03:21:47;23.00;1.00
20650;DHT22;10484;48.736;9.332;2023-08-20T03:24:12;22.90;1.00
20650;DHT22;10484;48.736;9.332;2023-08-20T03:26:38;22.90;1.00
20650;DHT22;10484;48.736;9.332;2023-08-20T03:29:03;22.80;1.00
20650;DHT22;10484;48.736;9.332;2023-08-20T03:31:29;22.70;1.00
20650;DHT22;10484;48.736;9.332;2023-08-20T03:33:55;22.70;1.00
20650;DHT22;10484;48.736;9.332;2023-08-20T03:36:20;22.70;1.00
20650;DHT22;10484;48.736;9.332;2023-08-20T03:38:46;22.70;1.00
20650;DHT22;10484;48.736;9.332;2023-08-20T03:41:11;22.70;1.00
20650;DHT22;10484;48.736;9.332;2023-08-20T03:43:37;22.70;1.00
20650;DHT22;10484;48.736;9.332;2023-08-20T03:46:03;22.70;1.00
20650;DHT22;10484;48.736;9.332;2023-08-20T03:48:28;22.70;1.00
20650;DHT22;10484;48.736;9.332;2023-08-20T03:50:54;22.70;1.00
20650;DHT22;10484;48.736;9.332;2023-08-20T03:53:19;22.60;1.00
20650;DHT22;10484;48.736;9.332;2023-08-20T03:55:51;22.70;1.00
20650;DHT22;10484;48.736;9.332;2023-08-20T03:58:17;22.60;1.00
20650;DHT22;10484;48.736;9.332;2023-08-20T04:00:43;22.60;1.00
20650;DHT22;10484;48.736;9.332;2023-08-20T04:03:09;22.60;1.00
20650;DHT22;10484;48.736;9.332;2023-08-20T04:05:38;22.50;1.00
20650;DHT22;10484;48.736;9.332;2023-08-20T04:08:05;22.40;1.00
20650;DHT22;10484;48.736;9.332;2023-08-20T04:10:31;22.40;1.00
20650;DHT22;10484;48.736;9.332;2023-08-20T04:12:57;22.40;1.00
20650;DHT22;10484;48.736;9.332;2023-08-20T04:15:22;22.30;1.00
20650;DHT22;10484;48.736;9.332;2023-08-20T04:17:48;22.30;1.00
20650;DHT22;10484;48.736;9.332;2023-08-20T04:20:14;22.30;1.00
20650;DHT22;10484;48.736;9.332;2023-08-20T04:22:40;22.30;1.00
20650;DHT22;10484;48.736;9.332;2023-08-20T04:25:06;22.20;1.00
20650;DHT22;10484;48.736;9.332;2023-08-20T04:27:33;22.20;1.00
20650;DHT22;10484;48.736;9.332;2023-08-20T04:29:58;22.20;1.00
20650;DHT22;10484;48.736;9.332;2023-08-20T04:32:24;22.20;1.00
20650;DHT22;10484;48.736;9.332;2023-08-20T04:34:50;22.20;1.00
20650;DHT22;10484;48.736;9.332;2023-08-20T04:37:20;22.30;1.00
20650;DHT22;10484;48.736;9.332;2023-08-20T04:39:46;22.30;1.00
20650;DHT22;10484;48.736;9.332;2023-08-20T04:42:11;22.30;1.00
20650;DHT22;10484;48.736;9.332;2023-08-20T04:44:37;22.20;1.00
20650;DHT22;10484;48.736;9.332;2023-08-20T04:47:03;22.20;1.00
20650;DHT22;10484;48.736;9.332;2023-08-20T04:49:28;22.20;1.00
20650;DHT22;10484;48.736;9.332;2023-08-20T04:51:55;22.10;1.00
20650;DHT22;10484;48.736;9.332;2023-08-20T04:54:21;22.10;1.00
20650;DHT22;10484;48.736;9.332;2023-08-20T04:56:46;22.10;1.00
20650;DHT22;10484;48.736;9.332;2023-08-20T04:59:12;22.10;1.00
20650;DHT22;10484;48.736;9.332;2023-08-20T05:01:38;22.10;1.00
20650;DHT22;10484;48.736;9.332;2023-08-20T05:04:04;22.10;1.00
20650;DHT22;10484;48.736;9.332;2023-08-20T05:06:30;22.00;1.00
20650;DHT22;10484;48.736;9.332;2023-08-20T05:08:55;22.00;1.00
20650;DHT22;10484;48.736;9.332;2023-08-20T05:11:21;22.00;1.00
20650;DHT22;10484;48.736;9.332;2023-08-20T05:13:49;22.00;1.00
20650;DHT22;10484;48.736;9.332;2023-08-20T05:16:14;22.00;1.00
20650;DHT22;10484;48.736;9.332;2023-08-20T05:18:40;22.00;1.00
20650;DHT22;10484;48.736;9.332;2023-08-20T05:21:05;22.00;1.00
20650;DHT22;10484;48.736;9.332;2023-08-20T05:23:31;22.00;1.00
20650;DHT22;10484;48.736;9.332;2023-08-20T05:25:56;21.90;1.00
20650;DHT22;10484;48.736;9.332;2023-08-20T05:28:22;21.90;1.00
20650;DHT22;10484;48.736;9.332;2023-08-20T05:30:57;21.90;1.40
20650;DHT22;10484;48.736;9.332;2023-08-20T05:33:23;21.90;1.40
20650;DHT22;10484;48.736;9.332;2023-08-20T05:35:49;21.90;2.50
20650;DHT22;10484;48.736;9.332;2023-08-20T05:38:14;21.90;3.80
20650;DHT22;10484;48.736;9.332;2023-08-20T05:40:40;21.90;4.90
20650;DHT22;10484;48.736;9.332;2023-08-20T05:43:06;21.90;5.60
20650;DHT22;10484;48.736;9.332;2023-08-20T05:45:32;21.90;6.60
20650;DHT22;10484;48.736;9.332;2023-08-20T05:47:58;21.90;7.40
20650;DHT22;10484;48.736;9.332;2023-08-20T05:50:23;21.90;11.40
20650;DHT22;10484;48.736;9.332;2023-08-20T05:52:49;21.90;8.90
20650;DHT22;10484;48.736;9.332;2023-08-20T05:55:15;21.90;9.50
20650;DHT22;10484;48.736;9.332;2023-08-20T05:57:41;21.90;10.50
20650;DHT22;10484;48.736;9.332;2023-08-20T06:00:08;21.90;10.80
20650;DHT22;10484;48.736;9.332;2023-08-20T06:02:34;21.90;11.40
20650;DHT22;10484;48.736;9.332;2023-08-20T06:05:00;21.90;11.80
20650;DHT22;10484;48.736;9.332;2023-08-20T06:07:25;21.90;12.00
20650;DHT22;10484;48.736;9.332;2023-08-20T06:09:51;21.90;11.50
20650;DHT22;10484;48.736;9.332;2023-08-20T06:12:17;21.90;11.70
20650;DHT22;10484;48.736;9.332;2023-08-20T06:14:43;22.00;11.50
20650;DHT22;10484;48.736;9.332;2023-08-20T06:17:08;22.00;11.70
20650;DHT22;10484;48.736;9.332;2023-08-20T06:19:34;22.00;11.70
20650;DHT22;10484;48.736;9.332;2023-08-20T06:22:00;22.00;12.00
20650;DHT22;10484;48.736;9.332;2023-08-20T06:24:25;22.10;11.50
20650;DHT22;10484;48.736;9.332;2023-08-20T06:26:51;22.10;11.40
20650;DHT22;10484;48.736;9.332;2023-08-20T06:29:17;22.10;11.30
20650;DHT22;10484;48.736;9.332;2023-08-20T06:31:43;22.10;11.60
20650;DHT22;10484;48.736;9.332;2023-08-20T06:34:09;22.10;12.00
20650;DHT22;10484;48.736;9.332;2023-08-20T06:36:35;22.10;12.10
20650;DHT22;10484;48.736;9.332;2023-08-20T06:39:01;22.10;12.30
20650;DHT22;10484;48.736;9.332;2023-08-20T06:41:27;22.20;13.00
20650;DHT22;10484;48.736;9.332;2023-08-20T06:43:52;22.20;13.40
20650;DHT22;10484;48.736;9.332;2023-08-20T06:46:18;22.20;13.70
20650;DHT22;10484;48.736;9.332;2023-08-20T06:48:43;22.20;14.40
20650;DHT22;10484;48.736;9.332;2023-08-20T06:51:18;22.20;14.40
20650;DHT22;10484;48.736;9.332;2023-08-20T06:53:44;22.20;14.30
20650;DHT22;10484;48.736;9.332;2023-08-20T06:56:09;22.20;15.50
20650;DHT22;10484;48.736;9.332;2023-08-20T06:58:37;22.30;15.80
20650;DHT22;10484;48.736;9.332;2023-08-20T07:01:03;22.30;15.80
20650;DHT22;10484;48.736;9.332;2023-08-20T07:03:39;22.30;16.50
20650;DHT22;10484;48.736;9.332;2023-08-20T07:06:05;22.30;16.60
20650;DHT22;10484;48.736;9.332;2023-08-20T07:08:31;22.40;18.10
20650;DHT22;10484;48.736;9.332;2023-08-20T07:10:57;22.40;18.90
20650;DHT22;10484;48.736;9.332;2023-08-20T07:13:23;22.40;18.90
20650;DHT22;10484;48.736;9.332;2023-08-20T07:15:49;22.40;19.00
20650;DHT22;10484;48.736;9.332;2023-08-20T07:18:15;22.40;19.30
20650;DHT22;10484;48.736;9.332;2023-08-20T07:20:44;22.50;20.20
20650;DHT22;10484;48.736;9.332;2023-08-20T07:23:10;22.50;20.70
20650;DHT22;10484;48.736;9.332;2023-08-20T07:25:37;22.60;22.00
20650;DHT22;10484;48.736;9.332;2023-08-20T07:28:04;22.60;21.90
20650;DHT22;10484;48.736;9.332;2023-08-20T07:30:30;22.60;22.30
20650;DHT22;10484;48.736;9.332;2023-08-20T07:32:56;22.70;22.70
20650;DHT22;10484;48.736;9.332;2023-08-20T07:35:21;22.70;23.90
20650;DHT22;10484;48.736;9.332;2023-08-20T07:37:47;22.80;23.80
20650;DHT22;10484;48.736;9.332;2023-08-20T07:40:13;22.80;23.40
20650;DHT22;10484;48.736;9.332;2023-08-20T07:42:40;22.80;23.10
20650;DHT22;10484;48.736;9.332;2023-08-20T07:45:06;22.90;23.40
20650;DHT22;10484;48.736;9.332;2023-08-20T07:47:33;22.90;23.70
20650;DHT22;10484;48.736;9.332;2023-08-20T07:49:58;23.00;24.80
20650;DHT22;10484;48.736;9.332;2023-08-20T07:52:24;23.00;24.30
20650;DHT22;10484;48.736;9.332;2023-08-20T07:54:50;23.10;24.30
20650;DHT22;10484;48.736;9.332;2023-08-20T07:57:15;23.20;23.60
20650;DHT22;10484;48.736;9.332;2023-08-20T07:59:41;23.20;22.80
20650;DHT22;10484;48.736;9.332;2023-08-20T08:02:06;23.30;22.00
20650;DHT22;10484;48.736;9.332;2023-08-20T08:04:33;23.40;22.20
20650;DHT22;10484;48.736;9.332;2023-08-20T08:06:59;23.40;22.60
20650;DHT22;10484;48.736;9.332;2023-08-20T08:09:29;23.50;22.40
20650;DHT22;10484;48.736;9.332;2023-08-20T08:11:55;23.60;21.70
20650;DHT22;10484;48.736;9.332;2023-08-20T08:14:21;23.70;20.60
20650;DHT22;10484;48.736;9.332;2023-08-20T08:16:47;23.70;20.50
20650;DHT22;10484;48.736;9.332;2023-08-20T08:19:13;23.90;20.10
20650;DHT22;10484;48.736;9.332;2023-08-20T08:21:39;23.90;18.90
20650;DHT22;10484;48.736;9.332;2023-08-20T08:24:05;24.10;18.70
20650;DHT22;10484;48.736;9.332;2023-08-20T08:26:31;24.20;18.50
20650;DHT22;10484;48.736;9.332;2023-08-20T08:28:57;24.30;17.40
20650;DHT22;10484;48.736;9.332;2023-08-20T08:31:23;24.40;16.10
20650;DHT22;10484;48.736;9.332;2023-08-20T08:33:49;24.50;15.10
20650;DHT22;10484;48.736;9.332;2023-08-20T08:36:14;24.60;14.40
20650;DHT22;10484;48.736;9.332;2023-08-20T08:38:42;24.70;14.80
20650;DHT22;10484;48.736;9.332;2023-08-20T08:41:10;24.80;12.90
20650;DHT22;10484;48.736;9.332;2023-08-20T08:43:38;24.90;11.20
20650;DHT22;10484;48.736;9.332;2023-08-20T08:46:06;25.00;10.40
20650;DHT22;10484;48.736;9.332;2023-08-20T08:48:34;25.10;9.00
20650;DHT22;10484;48.736;9.332;2023-08-20T08:51:01;25.20;8.20
20650;DHT22;10484;48.736;9.332;2023-08-20T08:53:26;25.30;7.00
20650;DHT22;10484;48.736;9.332;2023-08-20T08:55:52;25.30;5.60
20650;DHT22;10484;48.736;9.332;2023-08-20T08:58:18;25.40;4.20
20650;DHT22;10484;48.736;9.332;2023-08-20T09:00:43;25.40;3.40
20650;DHT22;10484;48.736;9.332;2023-08-20T09:03:09;25.50;2.90
20650;DHT22;10484;48.736;9.332;2023-08-20T09:05:48;25.60;2.10
20650;DHT22;10484;48.736;9.332;2023-08-20T09:08:21;25.70;1.00
20650;DHT22;10484;48.736;9.332;2023-08-20T09:10:50;25.80;1.00
20650;DHT22;10484;48.736;9.332;2023-08-20T09:13:16;25.90;1.00
20650;DHT22;10484;48.736;9.332;2023-08-20T09:15:42;26.00;1.00
20650;DHT22;10484;48.736;9.332;2023-08-20T09:18:10;26.10;1.00
20650;DHT22;10484;48.736;9.332;2023-08-20T09:20:37;26.20;1.00
20650;DHT22;10484;48.736;9.332;2023-08-20T09:23:03;26.30;1.00
20650;DHT22;10484;48.736;9.332;2023-08-20T09:25:29;26.40;1.00
20650;DHT22;10484;48.736;9.332;2023-08-20T09:27:54;26.40;1.00
20650;DHT22;10484;48.736;9.332;2023-08-20T09:30:20;26.60;1.00
20650;DHT22;10484;48.736;9.332;2023-08-20T09:33:10;26.70;1.00
20650;DHT22;10484;48.736;9.332;2023-08-20T09:35:36;26.80;1.00
20650;DHT22;10484;48.736;9.332;2023-08-20T09:38:05;26.80;1.00
20650;DHT22;10484;48.736;9.332;2023-08-20T09:40:31;26.90;1.00
20650;DHT22;10484;48.736;9.332;2023-08-20T09:42:57;27.00;1.00
20650;DHT22;10484;48.736;9.332;2023-08-20T09:45:28;27.10;1.00
20650;DHT22;10484;48.736;9.332;2023-08-20T09:47:58;27.30;1.00
20650;DHT22;10484;48.736;9.332;2023-08-20T09:50:26;27.40;1.00
20650;DHT22;10484;48.736;9.332;2023-08-20T09:52:59;27.50;1.00
20650;DHT22;10484;48.736;9.332;2023-08-20T09:55:45;27.60;1.00
20650;DHT22;10484;48.736;9.332;2023-08-20T09:58:12;27.80;1.00
20650;DHT22;10484;48.736;9.332;2023-08-20T10:00:38;27.90;1.00
20650;DHT22;10484;48.736;9.332;2023-08-20T10:03:04;28.00;1.00
20650;DHT22;10484;48.736;9.332;2023-08-20T10:05:31;28.10;1.00
20650;DHT22;10484;48.736;9.332;2023-08-20T10:07:58;28.20;1.00
20650;DHT22;10484;48.736;9.332;2023-08-20T10:10:24;28.30;1.00
20650;DHT22;10484;48.736;9.332;2023-08-20T10:12:51;28.40;1.00
20650;DHT22;10484;48.736;9.332;2023-08-20T10:15:17;28.50;1.00
20650;DHT22;10484;48.736;9.332;2023-08-20T10:17:44;28.50;1.00
20650;DHT22;10484;48.736;9.332;2023-08-20T10:20:13;28.60;1.00
20650;DHT22;10484;48.736;9.332;2023-08-20T10:22:44;28.70;1.00
20650;DHT22;10484;48.736;9.332;2023-08-20T10:25:24;28.80;1.00
20650;DHT22;10484;48.736;9.332;2023-08-20T10:27:50;28.90;1.00
20650;DHT22;10484;48.736;9.332;2023-08-20T10:30:24;28.90;1.00
20650;DHT22;10484;48.736;9.332;2023-08-20T10:32:52;29.00;1.00
20650;DHT22;10484;48.736;9.332;2023-08-20T10:35:30;29.10;1.00
20650;DHT22;10484;48.736;9.332;2023-08-20T10:38:13;29.10;1.00
20650;DHT22;10484;48.736;9.332;2023-08-20T10:40:56;29.20;1.00
20650;DHT22;10484;48.736;9.332;2023-08-20T10:46:06;29.40;1.00
20650;DHT22;10484;48.736;9.332;2023-08-20T10:48:32;29.50;1.00
20650;DHT22;10484;48.736;9.332;2023-08-20T10:51:14;29.60;1.00
20650;DHT22;10484;48.736;9.332;2023-08-20T10:53:41;29.80;1.00
20650;DHT22;10484;48.736;9.332;2023-08-20T10:56:16;29.80;1.00
20650;DHT22;10484;48.736;9.332;2023-08-20T10:58:46;29.90;1.00
20650;DHT22;10484;48.736;9.332;2023-08-20T11:01:22;30.00;1.00
20650;DHT22;10484;48.736;9.332;2023-08-20T11:03:50;30.10;1.00
20650;DHT22;10484;48.736;9.332;2023-08-20T11:06:17;30.20;1.00
20650;DHT22;10484;48.736;9.332;2023-08-20T11:08:43;30.30;1.00
20650;DHT22;10484;48.736;9.332;2023-08-20T11:11:10;30.30;1.00
20650;DHT22;10484;48.736;9.332;2023-08-20T11:13:36;30.40;1.00
20650;DHT22;10484;48.736;9.332;2023-08-20T11:16:02;30.50;1.00
20650;DHT22;10484;48.736;9.332;2023-08-20T11:18:29;30.60;1.00
20650;DHT22;10484;48.736;9.332;2023-08-20T11:20:55;30.70;1.00
20650;DHT22;10484;48.736;9.332;2023-08-20T11:23:22;30.80;1.00
20650;DHT22;10484;48.736;9.332;2023-08-20T11:25:48;30.90;1.00
20650;DHT22;10484;48.736;9.332;2023-08-20T11:28:13;30.90;1.00
20650;DHT22;10484;48.736;9.332;2023-08-20T11:30:39;31.00;1.00
20650;DHT22;10484;48.736;9.332;2023-08-20T11:33:05;31.10;1.00
20650;DHT22;10484;48.736;9.332;2023-08-20T11:35:32;31.20;1.00
20650;DHT22;10484;48.736;9.332;2023-08-20T11:37:58;31.30;1.00
20650;DHT22;10484;48.736;9.332;2023-08-20T11:40:24;31.30;1.00
20650;DHT22;10484;48.736;9.332;2023-08-20T11:42:50;31.40;1.00
20650;DHT22;10484;48.736;9.332;2023-08-20T11:45:15;31.50;1.00
20650;DHT22;10484;48.736;9.332;2023-08-20T11:47:42;31.60;1.00
20650;DHT22;10484;48.736;9.332;2023-08-20T11:50:08;31.60;1.00
20650;DHT22;10484;48.736;9.332;2023-08-20T11:52:36;31.70;1.00
20650;DHT22;10484;48.736;9.332;2023-08-20T11:55:03;31.80;1.00
20650;DHT22;10484;48.736;9.332;2023-08-20T11:57:29;31.80;1.00
20650;DHT22;10484;48.736;9.332;2023-08-20T11:59:56;31.90;1.00
20650;DHT22;10484;48.736;9.332;2023-08-20T12:02:26;32.00;1.00
20650;DHT22;10484;48.736;9.332;2023-08-20T12:04:54;32.10;1.00
20650;DHT22;10484;48.736;9.332;2023-08-20T12:07:20;32.10;1.00
20650;DHT22;10484;48.736;9.332;2023-08-20T12:09:50;32.20;1.00
20650;DHT22;10484;48.736;9.332;2023-08-20T12:12:19;32.30;1.00
20650;DHT22;10484;48.736;9.332;2023-08-20T12:14:45;32.40;1.00
20650;DHT22;10484;48.736;9.332;2023-08-20T12:17:10;32.40;1.00
20650;DHT22;10484;48.736;9.332;2023-08-20T12:19:36;32.50;1.00
20650;DHT22;10484;48.736;9.332;2023-08-20T12:22:02;32.60;1.00
20650;DHT22;10484;48.736;9.332;2023-08-20T12:24:27;32.60;1.00
20650;DHT22;10484;48.736;9.332;2023-08-20T12:26:53;32.70;1.00
20650;DHT22;10484;48.736;9.332;2023-08-20T12:29:19;32.80;1.00
20650;DHT22;10484;48.736;9.332;2023-08-20T12:31:45;32.80;1.00
20650;DHT22;10484;48.736;9.332;2023-08-20T12:34:10;32.90;1.00
20650;DHT22;10484;48.736;9.332;2023-08-20T12:36:36;32.90;1.00
20650;DHT22;10484;48.736;9.332;2023-08-20T12:39:02;33.00;1.00
20650;DHT22;10484;48.736;9.332;2023-08-20T12:41:29;33.10;1.00
20650;DHT22;10484;48.736;9.332;2023-08-20T12:43:55;33.20;1.00
20650;DHT22;10484;48.736;9.332;2023-08-20T12:46:20;33.20;1.00
20650;DHT22;10484;48.736;9.332;2023-08-20T12:48:46;33.20;1.00
20650;DHT22;10484;48.736;9.332;2023-08-20T12:51:18;33.30;1.00
20650;DHT22;10484;48.736;9.332;2023-08-20T12:53:44;33.30;1.00
20650;DHT22;10484;48.736;9.332;2023-08-20T12:56:10;33.20;1.00
20650;DHT22;10484;48.736;9.332;2023-08-20T12:58:37;33.30;1.00
20650;DHT22;10484;48.736;9.332;2023-08-20T13:01:03;33.30;1.00
20650;DHT22;10484;48.736;9.332;2023-08-20T13:03:29;33.40;1.00
20650;DHT22;10484;48.736;9.332;2023-08-20T13:05:54;33.40;1.00
20650;DHT22;10484;48.736;9.332;2023-08-20T13:08:23;33.50;1.00
20650;DHT22;10484;48.736;9.332;2023-08-20T13:10:56;33.60;1.00
20650;DHT22;10484;48.736;9.332;2023-08-20T13:13:23;33.70;1.00
20650;DHT22;10484;48.736;9.332;2023-08-20T13:15:50;33.80;1.00
20650;DHT22;10484;48.736;9.332;2023-08-20T13:18:16;33.90;1.00
20650;DHT22;10484;48.736;9.332;2023-08-20T13:20:42;34.00;1.00
20650;DHT22;10484;48.736;9.332;2023-08-20T13:23:09;34.00;1.00
20650;DHT22;10484;48.736;9.332;2023-08-20T13:25:34;34.00;1.00
20650;DHT22;10484;48.736;9.332;2023-08-20T13:28:00;34.10;1.00
20650;DHT22;10484;48.736;9.332;2023-08-20T13:30:25;34.10;1.00
20650;DHT22;10484;48.736;9.332;2023-08-20T13:32:51;34.10;1.00
20650;DHT22;10484;48.736;9.332;2023-08-20T13:35:16;34.10;1.00
20650;DHT22;10484;48.736;9.332;2023-08-20T13:37:43;34.10;1.00
20650;DHT22;10484;48.736;9.332;2023-08-20T13:40:09;34.10;1.00
20650;DHT22;10484;48.736;9.332;2023-08-20T13:42:35;34.10;1.00
20650;DHT22;10484;48.736;9.332;2023-08-20T13:45:01;34.20;1.00
20650;DHT22;10484;48.736;9.332;2023-08-20T13:47:27;34.20;1.00
20650;DHT22;10484;48.736;9.332;2023-08-20T13:49:52;34.30;1.00
20650;DHT22;10484;48.736;9.332;2023-08-20T13:52:18;34.30;1.00
20650;DHT22;10484;48.736;9.332;2023-08-20T13:54:43;34.30;1.00
20650;DHT22;10484;48.736;9.332;2023-08-20T13:57:09;34.30;1.00
20650;DHT22;10484;48.736;9.332;2023-08-20T13:59:35;34.30;1.00
20650;DHT22;10484;48.736;9.332;2023-08-20T14:02:01;34.40;1.00
20650;DHT22;10484;48.736;9.332;2023-08-20T14:04:26;34.40;1.00
20650;DHT22;10484;48.736;9.332;2023-08-20T14:06:52;34.40;1.00
20650;DHT22;10484;48.736;9.332;2023-08-20T14:09:18;34.40;1.00
20650;DHT22;10484;48.736;9.332;2023-08-20T14:11:44;34.50;1.00
20650;DHT22;10484;48.736;9.332;2023-08-20T14:14:10;34.50;1.00
20650;DHT22;10484;48.736;9.332;2023-08-20T14:16:36;34.50;1.00
20650;DHT22;10484;48.736;9.332;2023-08-20T14:19:01;34.40;1.00
20650;DHT22;10484;48.736;9.332;2023-08-20T14:21:27;34.50;1.00
20650;DHT22;10484;48.736;9.332;2023-08-20T14:23:52;34.50;1.00
20650;DHT22;10484;48.736;9.332;2023-08-20T14:26:18;34.50;1.00
20650;DHT22;10484;48.736;9.332;2023-08-20T14:28:44;34.50;1.00
20650;DHT22;10484;48.736;9.332;2023-08-20T14:31:10;34.50;1.00
20650;DHT22;10484;48.736;9.332;2023-08-20T14:33:35;34.50;1.00
20650;DHT22;10484;48.736;9.332;2023-08-20T14:36:01;34.40;1.00
20650;DHT22;10484;48.736;9.332;2023-08-20T14:38:29;34.40;1.00
20650;DHT22;10484;48.736;9.332;2023-08-20T14:41:02;34.40;1.00
20650;DHT22;10484;48.736;9.332;2023-08-20T14:43:28;34.30;1.00
20650;DHT22;10484;48.736;9.332;2023-08-20T14:45:54;34.30;1.00
20650;DHT22;10484;48.736;9.332;2023-08-20T14:48:21;34.30;1.00
20650;DHT22;10484;48.736;9.332;2023-08-20T14:50:47;34.30;1.00
20650;DHT22;10484;48.736;9.332;2023-08-20T14:53:13;34.30;1.00
20650;DHT22;10484;48.736;9.332;2023-08-20T14:55:39;34.30;1.00
20650;DHT22;10484;48.736;9.332;2023-08-20T14:58:05;34.30;1.00
20650;DHT22;10484;48.736;9.332;2023-08-20T15:00:33;34.30;1.00
20650;DHT22;10484;48.736;9.332;2023-08-20T15:02:59;34.30;1.00
20650;DHT22;10484;48.736;9.332;2023-08-20T15:05:25;34.30;1.00
20650;DHT22;10484;48.736;9.332;2023-08-20T15:07:50;34.30;1.00
20650;DHT22;10484;48.736;9.332;2023-08-20T15:10:16;34.40;1.00
20650;DHT22;10484;48.736;9.332;2023-08-20T15:12:42;34.50;1.00
20650;DHT22;10484;48.736;9.332;2023-08-20T15:15:07;34.30;1.00
20650;DHT22;10484;48.736;9.332;2023-08-20T15:17:36;34.10;1.00
20650;DHT22;10484;48.736;9.332;2023-08-20T15:20:03;34.00;1.00
20650;DHT22;10484;48.736;9.332;2023-08-20T15:22:39;34.00;1.00
20650;DHT22;10484;48.736;9.332;2023-08-20T15:25:05;34.00;1.00
20650;DHT22;10484;48.736;9.332;2023-08-20T15:27:33;34.10;1.00
20650;DHT22;10484;48.736;9.332;2023-08-20T15:30:00;34.20;1.00
20650;DHT22;10484;48.736;9.332;2023-08-20T15:32:25;34.30;1.00
20650;DHT22;10484;48.736;9.332;2023-08-20T15:34:53;34.60;1.00
20650;DHT22;10484;48.736;9.332;2023-08-20T15:37:18;34.60;1.00
20650;DHT22;10484;48.736;9.332;2023-08-20T15:39:44;34.80;1.00
20650;DHT22;10484;48.736;9.332;2023-08-20T15:42:10;34.90;1.00
20650;DHT22;10484;48.736;9.332;2023-08-20T15:44:35;35.00;1.00
20650;DHT22;10484;48.736;9.332;2023-08-20T15:47:01;35.10;1.00
20650;DHT22;10484;48.736;9.332;2023-08-20T15:49:26;35.20;1.00